createdAt,value
2023-05-07T00:00:10.799Z,2.20
2023-05-07T00:02:39.019Z,1.60
2023-05-07T00:05:06.502Z,1.98
2023-05-07T00:07:33.512Z,1.80
2023-05-07T00:10:00.440Z,1.90
2023-05-07T00:12:27.566Z,1.85
2023-05-07T00:14:54.362Z,1.90
2023-05-07T00:17:21.277Z,1.80
2023-05-07T00:19:48.830Z,2.00
2023-05-07T00:22:15.843Z,1.77
2023-05-07T00:24:42.855Z,1.92
2023-05-07T00:27:09.849Z,1.45
2023-05-07T00:29:37.820Z,1.60
2023-05-07T00:32:04.998Z,1.63
2023-05-07T00:34:32.028Z,1.98
2023-05-07T00:36:59.079Z,2.20
2023-05-07T00:39:26.225Z,2.08
2023-05-07T00:41:53.614Z,2.13
2023-05-07T00:44:20.634Z,2.20
2023-05-07T00:46:49.988Z,2.20
2023-05-07T00:49:17.631Z,2.20
2023-05-07T00:51:45.083Z,1.92
2023-05-07T00:54:12.353Z,2.25
2023-05-07T00:56:40.262Z,2.10
2023-05-07T00:59:07.522Z,2.40
2023-05-07T01:01:34.771Z,2.40
2023-05-07T01:04:01.711Z,2.58
2023-05-07T01:06:30.769Z,2.70
2023-05-07T01:08:58.709Z,2.65
2023-05-07T01:11:26.637Z,2.88
2023-05-07T01:13:54.212Z,2.55
2023-05-07T01:16:21.523Z,2.80
2023-05-07T01:18:50.137Z,3.13
2023-05-07T01:21:19.190Z,2.95
2023-05-07T01:23:47.280Z,3.00
2023-05-07T01:26:14.265Z,2.70
2023-05-07T01:28:41.168Z,2.70
2023-05-07T01:31:09.229Z,2.55
2023-05-07T01:33:38.694Z,2.55
2023-05-07T01:36:07.911Z,2.40
2023-05-07T01:38:35.293Z,2.58
2023-05-07T01:41:03.540Z,2.13
2023-05-07T01:43:31.615Z,2.17
2023-05-07T01:46:00.167Z,2.38
2023-05-07T01:48:27.263Z,2.10
2023-05-07T01:50:54.685Z,2.10
2023-05-07T01:53:21.514Z,2.03
2023-05-07T01:55:48.523Z,2.00
2023-05-07T01:58:15.422Z,1.80
2023-05-07T02:04:14.699Z,2.03
2023-05-07T02:06:41.794Z,1.95
2023-05-07T02:09:10.093Z,2.10
2023-05-07T02:11:39.751Z,1.95
2023-05-07T02:14:06.637Z,1.80
2023-05-07T02:16:33.629Z,2.00
2023-05-07T02:19:00.663Z,1.80
2023-05-07T02:21:29.397Z,2.13
2023-05-07T02:23:57.499Z,1.98
2023-05-07T02:26:24.333Z,2.00
2023-05-07T02:28:52.035Z,2.08
2023-05-07T02:31:18.955Z,2.20
2023-05-07T02:33:46.627Z,2.05
2023-05-07T02:36:13.893Z,1.83
2023-05-07T02:38:40.987Z,2.50
2023-05-07T02:41:07.844Z,2.05
2023-05-07T02:43:34.776Z,2.40
2023-05-07T02:46:05.893Z,1.85
2023-05-07T02:48:32.974Z,1.75
2023-05-07T02:51:00.742Z,1.90
2023-05-07T02:53:28.158Z,2.00
2023-05-07T02:55:55.650Z,2.08
2023-05-07T02:58:22.703Z,1.77
2023-05-07T03:00:49.671Z,1.77
2023-05-07T03:03:16.501Z,1.52
2023-05-07T03:05:43.615Z,1.80
2023-05-07T03:08:10.965Z,1.73
2023-05-07T03:10:38.485Z,1.95
2023-05-07T03:13:05.639Z,2.08
2023-05-07T03:15:32.515Z,1.90
2023-05-07T03:17:59.417Z,2.20
2023-05-07T03:20:26.372Z,1.90
2023-05-07T03:22:53.353Z,1.95
2023-05-07T03:25:20.390Z,2.40
2023-05-07T03:27:47.250Z,1.85
2023-05-07T03:30:14.110Z,2.40
2023-05-07T03:32:41.442Z,1.92
2023-05-07T03:35:08.741Z,2.05
2023-05-07T03:37:35.717Z,2.20
2023-05-07T03:40:03.308Z,1.92
2023-05-07T03:42:30.347Z,1.90
2023-05-07T03:44:57.196Z,1.92
2023-05-07T03:47:24.046Z,2.20
2023-05-07T03:49:54.004Z,1.70
2023-05-07T03:52:24.960Z,1.83
2023-05-07T03:54:52.010Z,1.88
2023-05-07T03:57:18.947Z,1.70
2023-05-07T03:59:45.750Z,1.73
2023-05-07T04:02:12.693Z,1.88
2023-05-07T04:04:39.592Z,2.08
2023-05-07T04:07:06.490Z,1.80
2023-05-07T04:09:33.404Z,1.90
2023-05-07T04:12:00.247Z,1.80
2023-05-07T04:14:27.192Z,1.90
2023-05-07T04:16:54.553Z,2.08
2023-05-07T04:19:21.586Z,2.05
2023-05-07T04:21:48.399Z,2.10
2023-05-07T04:24:15.204Z,1.73
2023-05-07T04:26:42.047Z,2.17
2023-05-07T04:29:08.922Z,2.05
2023-05-07T04:31:36.092Z,2.00
2023-05-07T04:34:02.961Z,2.33
2023-05-07T04:36:30.712Z,1.80
2023-05-07T04:38:57.534Z,1.92
2023-05-07T04:41:24.379Z,2.13
2023-05-07T04:43:51.260Z,1.83
2023-05-07T04:46:18.149Z,1.85
2023-05-07T04:48:45.045Z,2.17
2023-05-07T04:51:12.041Z,1.92
2023-05-07T04:53:39.077Z,1.90
2023-05-07T04:56:06.587Z,2.05
2023-05-07T04:58:33.649Z,1.75
2023-05-07T05:01:01.630Z,1.90
2023-05-07T05:03:28.915Z,2.00
2023-05-07T05:05:56.074Z,1.70
2023-05-07T05:08:22.910Z,2.10
2023-05-07T05:10:51.136Z,1.60
2023-05-07T05:13:18.244Z,1.70
2023-05-07T05:15:45.257Z,1.90
2023-05-07T05:18:12.129Z,2.10
2023-05-07T05:20:38.922Z,2.08
2023-05-07T05:23:07.159Z,2.08
2023-05-07T05:25:34.016Z,2.30
2023-05-07T05:28:00.870Z,1.73
2023-05-07T05:30:27.853Z,2.00
2023-05-07T05:32:54.784Z,1.98
2023-05-07T05:35:21.690Z,2.22
2023-05-07T05:37:49.333Z,2.15
2023-05-07T05:40:16.185Z,1.92
2023-05-07T05:42:43.122Z,2.08
2023-05-07T05:45:10.477Z,2.28
2023-05-07T05:47:39.032Z,2.10
2023-05-07T05:50:07.687Z,2.00
2023-05-07T05:52:34.537Z,2.08
2023-05-07T05:55:01.363Z,2.33
2023-05-07T05:59:57.974Z,2.15
2023-05-07T06:02:24.950Z,2.00
2023-05-07T06:04:51.864Z,2.22
2023-05-07T06:07:18.707Z,2.40
2023-05-07T06:09:45.521Z,2.20
2023-05-07T06:12:13.168Z,2.55
2023-05-07T06:14:40.021Z,2.42
2023-05-07T06:17:08.225Z,2.60
2023-05-07T06:19:35.066Z,2.47
2023-05-07T06:22:02.971Z,2.50
2023-05-07T06:24:30.197Z,2.30
2023-05-07T06:26:57.237Z,2.53
2023-05-07T06:29:24.721Z,2.67
2023-05-07T06:31:51.750Z,2.40
2023-05-07T06:34:18.689Z,2.33
2023-05-07T06:36:45.588Z,2.47
2023-05-07T06:39:12.380Z,2.15
2023-05-07T06:41:40.021Z,2.33
2023-05-07T06:44:06.860Z,2.33
2023-05-07T06:46:33.790Z,2.53
2023-05-07T06:49:00.665Z,2.55
2023-05-07T06:51:28.052Z,2.30
2023-05-07T06:53:54.917Z,2.50
2023-05-07T06:56:22.249Z,2.40
2023-05-07T06:58:49.324Z,2.63
2023-05-07T07:01:16.432Z,2.78
2023-05-07T07:03:43.329Z,2.42
2023-05-07T07:06:10.277Z,3.28
2023-05-07T07:08:39.890Z,3.13
2023-05-07T07:11:07.622Z,3.15
2023-05-07T07:13:34.499Z,3.13
2023-05-07T07:16:01.826Z,3.10
2023-05-07T07:18:28.878Z,3.28
2023-05-07T07:20:55.915Z,3.22
2023-05-07T07:23:22.986Z,3.00
2023-05-07T07:25:49.892Z,3.20
2023-05-07T07:28:16.759Z,2.80
2023-05-07T07:30:43.671Z,2.70
2023-05-07T07:33:10.606Z,3.10
2023-05-07T07:35:37.531Z,2.78
2023-05-07T07:38:04.511Z,2.60
2023-05-07T07:40:31.402Z,2.70
2023-05-07T07:42:58.637Z,2.60
2023-05-07T07:45:25.570Z,2.63
2023-05-07T07:47:52.475Z,2.25
2023-05-07T07:50:35.636Z,2.47
2023-05-07T07:53:06.373Z,2.47
2023-05-07T07:55:33.740Z,2.65
2023-05-07T07:58:00.634Z,2.20
2023-05-07T08:00:27.724Z,2.60
2023-05-07T08:02:54.847Z,2.40
2023-05-07T08:05:22.035Z,2.30
2023-05-07T08:07:53.156Z,2.30
2023-05-07T08:10:23.417Z,2.17
2023-05-07T08:12:51.084Z,2.45
2023-05-07T08:15:18.718Z,2.20
2023-05-07T08:17:45.646Z,2.08
2023-05-07T08:20:12.746Z,1.63
2023-05-07T08:22:39.819Z,2.00
2023-05-07T08:25:06.986Z,2.33
2023-05-07T08:27:33.823Z,2.38
2023-05-07T08:30:00.908Z,2.40
2023-05-07T08:32:28.846Z,2.28
2023-05-07T08:34:55.973Z,2.30
2023-05-07T08:37:22.737Z,2.40
2023-05-07T08:39:49.640Z,2.33
2023-05-07T08:42:18.148Z,2.55
2023-05-07T08:44:48.204Z,2.33
2023-05-07T08:47:15.456Z,2.03
2023-05-07T08:49:42.811Z,2.50
2023-05-07T08:52:10.259Z,2.53
2023-05-07T08:54:39.067Z,2.20
2023-05-07T08:57:06.230Z,2.30
2023-05-07T08:59:33.188Z,2.67
2023-05-07T09:02:00.155Z,2.70
2023-05-07T09:04:28.425Z,2.50
2023-05-07T09:06:55.636Z,2.58
2023-05-07T09:09:23.331Z,2.67
2023-05-07T09:11:57.710Z,2.28
2023-05-07T09:14:25.047Z,2.30
2023-05-07T09:16:54.308Z,2.53
2023-05-07T09:19:28.620Z,2.55
2023-05-07T09:22:06.006Z,2.50
2023-05-07T09:24:36.168Z,2.55
2023-05-07T09:27:03.811Z,2.50
2023-05-07T09:29:36.234Z,2.78
2023-05-07T09:32:06.378Z,2.40
2023-05-07T09:34:33.964Z,2.60
2023-05-07T09:37:02.984Z,2.50
2023-05-07T09:39:47.266Z,2.22
2023-05-07T09:42:16.548Z,1.83
2023-05-07T09:44:44.922Z,2.40
2023-05-07T09:47:15.584Z,2.33
2023-05-07T09:49:47.939Z,2.28
2023-05-07T09:52:15.586Z,2.35
2023-05-07T09:54:44.512Z,2.25
2023-05-07T09:57:15.130Z,2.28
2023-05-07T09:59:44.409Z,2.17
2023-05-07T10:02:14.820Z,2.47
2023-05-07T10:04:41.835Z,2.15
2023-05-07T10:07:09.548Z,2.08
2023-05-07T10:09:40.260Z,2.40
2023-05-07T10:12:07.679Z,2.30
2023-05-07T10:14:37.745Z,2.50
2023-05-07T10:17:05.234Z,2.05
2023-05-07T10:19:33.039Z,2.25
2023-05-07T10:22:06.800Z,2.20
2023-05-07T10:24:38.200Z,1.85
2023-05-07T10:27:13.543Z,1.85
2023-05-07T10:30:16.764Z,2.17
2023-05-07T10:32:57.108Z,1.63
2023-05-07T10:35:33.092Z,1.95
2023-05-07T10:38:00.278Z,1.90
2023-05-07T10:40:27.228Z,1.80
2023-05-07T10:42:59.177Z,1.70
2023-05-07T10:45:26.876Z,1.60
2023-05-07T10:48:29.462Z,1.63
2023-05-07T10:51:26.091Z,1.63
2023-05-07T10:54:11.602Z,1.60
2023-05-07T10:56:39.549Z,1.73
2023-05-07T10:59:21.778Z,1.70
2023-05-07T11:01:56.897Z,1.50
2023-05-07T11:04:28.712Z,2.00
2023-05-07T11:07:08.135Z,2.10
2023-05-07T11:09:54.737Z,1.50
2023-05-07T11:12:37.249Z,1.80
2023-05-07T11:15:08.896Z,1.77
2023-05-07T11:17:54.398Z,1.70
2023-05-07T11:20:21.732Z,1.70
2023-05-07T11:22:49.100Z,1.85
2023-05-07T11:25:22.403Z,1.85
2023-05-07T11:27:49.740Z,1.35
2023-05-07T11:30:22.212Z,1.80
2023-05-07T11:32:50.077Z,2.03
2023-05-07T11:35:17.723Z,1.45
2023-05-07T11:37:45.900Z,1.50
2023-05-07T11:40:17.284Z,1.42
2023-05-07T11:42:44.430Z,1.20
2023-05-07T11:45:11.865Z,1.50
2023-05-07T11:47:39.264Z,1.30
2023-05-07T11:50:08.839Z,1.27
2023-05-07T11:52:36.499Z,1.60
2023-05-07T11:55:07.459Z,1.40
2023-05-07T11:57:35.711Z,1.60
2023-05-07T12:00:04.956Z,1.77
2023-05-07T12:02:32.697Z,1.60
2023-05-07T12:05:01.957Z,1.50
2023-05-07T12:07:28.864Z,1.77
2023-05-07T12:09:55.842Z,1.60
2023-05-07T12:12:22.708Z,1.60
2023-05-07T12:14:49.694Z,1.73
2023-05-07T12:17:17.549Z,1.70
2023-05-07T12:19:48.012Z,1.75
2023-05-07T12:22:15.085Z,1.50
2023-05-07T12:25:02.103Z,1.50
2023-05-07T12:27:29.091Z,1.83
2023-05-07T12:29:58.244Z,1.50
2023-05-07T12:32:25.052Z,1.30
2023-05-07T12:34:53.112Z,1.20
2023-05-07T12:37:26.206Z,1.63
2023-05-07T12:40:07.983Z,1.25
2023-05-07T12:42:37.713Z,1.20
2023-05-07T12:45:17.463Z,1.42
2023-05-07T12:47:48.588Z,1.42
2023-05-07T12:50:16.695Z,1.50
2023-05-07T12:52:46.852Z,1.20
2023-05-07T12:55:16.192Z,1.35
2023-05-07T12:57:44.400Z,1.30
2023-05-07T13:00:12.066Z,1.20
2023-05-07T13:02:42.041Z,1.40
2023-05-07T13:05:09.859Z,1.60
2023-05-07T13:07:38.154Z,1.80
2023-05-07T13:10:05.673Z,2.03
2023-05-07T13:12:32.693Z,1.58
2023-05-07T13:15:00.872Z,1.77
2023-05-07T13:17:28.103Z,2.00
2023-05-07T13:19:55.013Z,2.13
2023-05-07T13:22:21.954Z,2.00
2023-05-07T13:24:48.724Z,1.60
2023-05-07T13:27:15.520Z,2.05
2023-05-07T13:29:42.283Z,2.28
2023-05-07T13:32:09.240Z,1.70
2023-05-07T13:34:36.271Z,2.47
2023-05-07T13:37:11.098Z,2.45
2023-05-07T13:39:38.347Z,2.53
2023-05-07T13:42:05.767Z,2.80
2023-05-07T13:44:33.558Z,2.30
2023-05-07T13:47:02.030Z,3.03
2023-05-07T13:49:29.167Z,3.58
2023-05-07T13:51:56.066Z,8.68
2023-05-07T13:54:25.030Z,4.43
2023-05-07T13:56:52.275Z,4.00
2023-05-07T13:59:21.187Z,3.00
2023-05-07T14:01:49.393Z,2.47
2023-05-07T14:04:18.052Z,2.97
2023-05-07T14:06:46.824Z,2.38
2023-05-07T14:09:15.009Z,2.05
2023-05-07T14:11:43.453Z,3.00
2023-05-07T14:14:13.060Z,2.80
2023-05-07T14:16:40.991Z,3.05
2023-05-07T14:19:09.698Z,2.25
2023-05-07T14:21:36.546Z,2.40
2023-05-07T14:24:03.666Z,2.00
2023-05-07T14:26:30.513Z,2.20
2023-05-07T14:28:59.391Z,2.03
2023-05-07T14:31:28.647Z,2.05
2023-05-07T14:33:55.788Z,2.10
2023-05-07T14:36:23.958Z,1.63
2023-05-07T14:38:50.834Z,1.60
2023-05-07T14:41:19.283Z,2.00
2023-05-07T14:43:51.066Z,1.60
2023-05-07T14:46:19.054Z,1.75
2023-05-07T14:48:49.855Z,1.55
2023-05-07T14:51:18.170Z,1.70
2023-05-07T14:53:46.421Z,1.70
2023-05-07T14:56:13.345Z,1.80
2023-05-07T14:58:41.348Z,1.63
2023-05-07T15:01:08.268Z,2.03
2023-05-07T15:03:35.807Z,2.25
2023-05-07T15:06:03.910Z,2.40
2023-05-07T15:08:31.364Z,2.50
2023-05-07T15:10:58.346Z,2.67
2023-05-07T15:13:27.781Z,2.50
2023-05-07T15:15:54.736Z,2.63
2023-05-07T15:18:22.712Z,3.50
2023-05-07T15:20:50.016Z,2.55
2023-05-07T15:23:16.879Z,2.60
2023-05-07T15:25:43.676Z,3.05
2023-05-07T15:28:10.472Z,2.55
2023-05-07T15:30:37.334Z,2.55
2023-05-07T15:33:04.701Z,2.15
2023-05-07T15:35:32.072Z,2.20
2023-05-07T15:37:59.919Z,3.30
2023-05-07T15:40:28.048Z,3.08
2023-05-07T15:42:57.101Z,2.80
2023-05-07T15:45:25.263Z,2.13
2023-05-07T15:47:52.165Z,2.20
2023-05-07T15:50:19.207Z,2.15
2023-05-07T15:52:47.533Z,2.33
2023-05-07T15:55:15.129Z,2.30
2023-05-07T15:57:42.145Z,2.88
2023-05-07T16:00:12.621Z,2.03
2023-05-07T16:02:42.455Z,2.47
2023-05-07T16:05:11.156Z,2.60
2023-05-07T16:07:38.635Z,2.40
2023-05-07T16:10:13.184Z,2.15
2023-05-07T16:12:41.808Z,2.25
2023-05-07T16:15:09.312Z,2.47
2023-05-07T16:17:38.067Z,2.60
2023-05-07T16:20:07.169Z,2.90
2023-05-07T16:22:37.165Z,2.50
2023-05-07T16:25:05.568Z,2.88
2023-05-07T16:27:33.076Z,2.63
2023-05-07T16:30:00.221Z,2.90
2023-05-07T16:32:28.830Z,2.78
2023-05-07T16:34:55.709Z,3.00
2023-05-07T16:37:22.845Z,2.85
2023-05-07T16:39:49.696Z,3.42
2023-05-07T16:42:17.174Z,3.75
2023-05-07T16:44:44.216Z,3.25
2023-05-07T16:47:11.258Z,3.50
2023-05-07T16:49:39.633Z,3.20
2023-05-07T16:52:07.828Z,3.30
2023-05-07T16:54:36.989Z,2.78
2023-05-07T16:57:03.999Z,3.47
2023-05-07T16:59:33.757Z,3.72
2023-05-07T17:02:00.614Z,3.42
2023-05-07T17:04:33.192Z,3.80
2023-05-07T17:07:00.524Z,3.15
2023-05-07T17:09:27.425Z,3.50
2023-05-07T17:11:56.369Z,3.30
2023-05-07T17:14:23.231Z,3.10
2023-05-07T17:16:52.614Z,3.42
2023-05-07T17:19:19.436Z,3.08
2023-05-07T17:21:47.208Z,3.08
2023-05-07T17:24:15.228Z,3.03
2023-05-07T17:26:43.304Z,3.10
2023-05-07T17:29:10.387Z,3.42
2023-05-07T17:31:39.056Z,3.75
2023-05-07T17:34:07.433Z,3.25
2023-05-07T17:36:34.620Z,3.45
2023-05-07T17:39:01.451Z,3.78
2023-05-07T17:41:28.221Z,4.10
2023-05-07T17:43:55.461Z,3.90
2023-05-07T17:46:23.436Z,4.35
2023-05-07T17:48:50.583Z,4.38
2023-05-07T17:51:18.923Z,4.45
2023-05-07T17:53:46.274Z,4.95
2023-05-07T17:56:13.064Z,4.85
2023-05-07T17:58:57.376Z,5.18
2023-05-07T18:01:25.707Z,4.78
2023-05-07T18:03:58.894Z,4.70
2023-05-07T18:06:26.867Z,5.55
2023-05-07T18:08:56.337Z,4.57
2023-05-07T18:11:24.153Z,5.35
2023-05-07T18:13:50.998Z,5.80
2023-05-07T18:16:21.520Z,5.00
2023-05-07T18:18:48.439Z,4.68
2023-05-07T18:21:18.961Z,5.18
2023-05-07T18:23:46.735Z,4.00
2023-05-07T18:26:16.660Z,4.30
2023-05-07T18:28:43.932Z,4.10
2023-05-07T18:31:11.237Z,4.22
2023-05-07T18:33:42.071Z,4.85
2023-05-07T18:36:10.975Z,4.80
2023-05-07T18:38:39.030Z,4.30
2023-05-07T18:41:06.675Z,4.78
2023-05-07T18:43:34.192Z,5.15
2023-05-07T18:46:02.438Z,5.72
2023-05-07T18:48:32.251Z,5.40
2023-05-07T18:50:59.575Z,6.18
2023-05-07T18:53:26.696Z,6.10
2023-05-07T18:55:53.598Z,5.38
2023-05-07T18:58:20.610Z,5.78
2023-05-07T19:00:52.325Z,5.47
2023-05-07T19:03:19.275Z,7.25
2023-05-07T19:05:46.503Z,7.68
2023-05-07T19:08:13.731Z,6.15
2023-05-07T19:10:41.443Z,5.88
2023-05-07T19:13:08.504Z,4.88
2023-05-07T19:15:39.204Z,4.45
2023-05-07T19:18:06.212Z,3.72
2023-05-07T19:20:34.317Z,3.63
2023-05-07T19:23:01.161Z,3.85
2023-05-07T19:25:28.084Z,3.95
2023-05-07T19:27:56.449Z,4.28
2023-05-07T19:30:24.485Z,3.78
2023-05-07T19:32:51.868Z,3.80
2023-05-07T19:35:19.632Z,3.63
2023-05-07T19:37:46.815Z,4.25
2023-05-07T19:40:17.095Z,3.70
2023-05-07T19:42:43.873Z,3.80
2023-05-07T19:45:11.677Z,4.20
2023-05-07T19:47:39.300Z,3.92
2023-05-07T19:50:08.277Z,3.80
2023-05-07T19:52:36.161Z,3.63
2023-05-07T19:55:04.693Z,3.30
2023-05-07T19:57:31.497Z,3.80
2023-05-07T19:59:58.331Z,3.25
2023-05-07T20:02:25.744Z,3.72
2023-05-07T20:04:57.728Z,3.67
2023-05-07T20:07:24.571Z,4.40
2023-05-07T20:09:51.364Z,3.60
2023-05-07T20:12:18.312Z,3.83
2023-05-07T20:14:45.120Z,3.78
2023-05-07T20:17:12.997Z,3.95
2023-05-07T20:19:39.803Z,3.60
2023-05-07T20:22:06.815Z,3.53
2023-05-07T20:24:39.299Z,3.50
2023-05-07T20:27:06.484Z,4.22
2023-05-07T20:29:34.414Z,3.53
2023-05-07T20:32:03.624Z,3.88
2023-05-07T20:34:30.539Z,3.90
2023-05-07T20:36:57.842Z,3.50
2023-05-07T20:39:24.634Z,3.53
2023-05-07T20:41:53.892Z,3.78
2023-05-07T20:44:20.706Z,3.83
2023-05-07T20:46:48.233Z,4.30
2023-05-07T20:49:15.780Z,3.60
2023-05-07T20:51:42.578Z,3.50
2023-05-07T20:54:09.355Z,3.70
2023-05-07T20:56:37.484Z,4.07
2023-05-07T20:59:05.342Z,3.67
2023-05-07T21:01:32.605Z,3.58
2023-05-07T21:03:59.634Z,3.50
2023-05-07T21:06:26.621Z,3.40
2023-05-07T21:08:53.975Z,3.00
2023-05-07T21:11:21.797Z,3.10
2023-05-07T21:13:49.963Z,3.35
2023-05-07T21:16:17.152Z,3.50
2023-05-07T21:18:44.057Z,3.90
2023-05-07T21:21:11.502Z,3.28
2023-05-07T21:23:38.569Z,3.80
2023-05-07T21:26:05.488Z,3.28
2023-05-07T21:28:32.351Z,3.60
2023-05-07T21:30:59.725Z,3.45
2023-05-07T21:33:26.831Z,4.05
2023-05-07T21:35:55.238Z,3.65
2023-05-07T21:38:24.757Z,3.60
2023-05-07T21:40:51.541Z,4.05
2023-05-07T21:43:18.385Z,4.07
2023-05-07T21:45:45.163Z,3.88
2023-05-07T21:48:13.751Z,4.18
2023-05-07T21:50:43.136Z,3.20
2023-05-07T21:53:09.916Z,3.40
2023-05-07T21:55:38.169Z,3.30
2023-05-07T21:58:06.215Z,3.42
2023-05-07T22:00:34.136Z,2.90
2023-05-07T22:03:01.341Z,3.28
2023-05-07T22:05:28.302Z,2.97
2023-05-07T22:07:55.192Z,3.33
2023-05-07T22:10:23.283Z,3.28
2023-05-07T22:12:50.409Z,2.60
2023-05-07T22:15:18.849Z,3.38
2023-05-07T22:17:45.780Z,2.83
2023-05-07T22:20:13.412Z,3.13
2023-05-07T22:22:52.775Z,2.75
2023-05-07T22:25:21.131Z,2.58
2023-05-07T22:27:48.736Z,3.00
2023-05-07T22:30:16.080Z,2.65
2023-05-07T22:32:43.804Z,2.58
2023-05-07T22:35:10.829Z,2.78
2023-05-07T22:37:37.735Z,2.50
2023-05-07T22:40:05.543Z,2.72
2023-05-07T22:42:32.509Z,2.92
2023-05-07T22:44:59.417Z,3.30
2023-05-07T22:47:30.072Z,2.97
2023-05-07T22:49:57.276Z,3.08
2023-05-07T22:52:24.144Z,3.15
2023-05-07T22:54:53.403Z,3.17
2023-05-07T22:57:21.441Z,3.45
2023-05-07T22:59:48.274Z,3.20
2023-05-07T23:02:15.164Z,3.35
2023-05-07T23:04:43.175Z,3.78
2023-05-07T23:07:10.925Z,3.90
2023-05-07T23:09:38.171Z,3.90
2023-05-07T23:12:06.301Z,4.00
2023-05-07T23:14:33.144Z,4.20
2023-05-07T23:17:00.045Z,3.70
2023-05-07T23:19:26.913Z,3.38
2023-05-07T23:21:53.815Z,3.20
2023-05-07T23:24:20.686Z,3.05
2023-05-07T23:26:48.582Z,2.20
2023-05-07T23:29:16.943Z,2.40
2023-05-07T23:31:45.149Z,2.25
2023-05-07T23:34:11.941Z,2.03
2023-05-07T23:36:38.762Z,2.50
2023-05-07T23:39:05.674Z,2.50
2023-05-07T23:41:32.469Z,3.08
2023-05-07T23:43:59.333Z,2.90
2023-05-07T23:46:27.572Z,2.78
2023-05-07T23:48:54.352Z,2.70
2023-05-07T23:51:21.164Z,2.45
2023-05-07T23:53:47.945Z,2.88
2023-05-07T23:56:14.751Z,2.58
2023-05-07T23:58:41.748Z,2.30
